createdAt,value
2019-02-27T00:01:20.766Z,58.93
2019-02-27T00:03:50.290Z,56.63
2019-02-27T00:06:19.979Z,57.30
2019-02-27T00:08:49.768Z,64.10
2019-02-27T00:11:19.303Z,61.97
2019-02-27T00:13:48.821Z,62.00
2019-02-27T00:16:18.670Z,56.27
2019-02-27T00:18:48.183Z,60.47
2019-02-27T00:21:17.772Z,59.80
2019-02-27T00:23:47.324Z,60.17
2019-02-27T00:26:16.841Z,59.40
2019-02-27T00:28:46.365Z,56.13
2019-02-27T00:31:15.974Z,59.87
2019-02-27T00:33:45.498Z,56.23
2019-02-27T00:36:15.003Z,58.30
2019-02-27T00:38:44.564Z,58.77
2019-02-27T00:41:14.085Z,61.37
2019-02-27T00:43:43.585Z,59.33
2019-02-27T00:46:13.920Z,60.27
2019-02-27T00:48:43.632Z,62.37
2019-02-27T00:51:13.151Z,59.20
2019-02-27T00:53:42.708Z,61.13
2019-02-27T00:56:12.910Z,61.20
2019-02-27T00:58:42.530Z,58.97
2019-02-27T01:01:12.613Z,59.10
2019-02-27T01:03:42.816Z,57.50
2019-02-27T01:06:14.632Z,59.30
2019-02-27T01:08:44.159Z,56.37
2019-02-27T01:11:18.187Z,55.23
2019-02-27T01:13:44.933Z,55.07
2019-02-27T01:16:16.978Z,54.27
2019-02-27T01:18:45.957Z,55.57
2019-02-27T01:21:18.942Z,50.63
2019-02-27T01:23:46.922Z,54.90
2019-02-27T01:26:16.590Z,54.20
2019-02-27T01:28:46.124Z,56.17
2019-02-27T01:31:15.751Z,55.77
2019-02-27T01:33:45.270Z,53.90
2019-02-27T01:36:14.801Z,58.73
2019-02-27T01:38:44.562Z,55.60
2019-02-27T01:41:14.088Z,54.90
2019-02-27T01:43:43.951Z,57.53
2019-02-27T01:46:13.512Z,56.23
2019-02-27T01:48:43.857Z,59.57
2019-02-27T01:51:13.423Z,55.03
2019-02-27T01:53:43.387Z,57.50
2019-02-27T01:56:12.904Z,61.83
2019-02-27T01:58:44.231Z,59.97
2019-02-27T02:01:13.690Z,61.10
2019-02-27T02:03:47.240Z,57.60
2019-02-27T02:06:14.453Z,57.63
2019-02-27T02:08:47.935Z,60.90
2019-02-27T02:11:15.609Z,58.30
2019-02-27T02:13:58.486Z,57.83
2019-02-27T02:16:50.675Z,57.63
2019-02-27T02:19:44.261Z,58.20
2019-02-27T02:22:27.491Z,55.10
2019-02-27T02:25:25.123Z,57.30
2019-02-27T02:28:35.191Z,55.80
2019-02-27T02:31:12.402Z,54.17
2019-02-27T02:34:06.366Z,55.00
2019-02-27T02:36:43.322Z,56.53
2019-02-27T02:39:23.655Z,59.70
2019-02-27T02:42:06.408Z,57.07
2019-02-27T02:45:09.590Z,62.07
2019-02-27T02:48:04.596Z,64.60
2019-02-27T02:51:02.172Z,61.03
2019-02-27T02:54:00.122Z,59.30
2019-02-27T02:56:40.506Z,59.70
2019-02-27T02:59:46.682Z,59.53
2019-02-27T03:02:32.769Z,63.40
2019-02-27T03:05:28.243Z,62.13
2019-02-27T03:08:26.576Z,62.13
2019-02-27T03:11:18.128Z,62.83
2019-02-27T03:14:17.251Z,62.10
2019-02-27T03:17:04.718Z,62.40
2019-02-27T03:19:47.423Z,64.67
2019-02-27T03:22:45.702Z,63.27
2019-02-27T03:25:31.526Z,64.37
2019-02-27T03:28:21.057Z,67.37
2019-02-27T03:31:15.707Z,63.70
2019-02-27T03:34:07.967Z,65.70
2019-02-27T03:36:39.746Z,61.20
2019-02-27T03:39:14.075Z,60.27
2019-02-27T03:42:17.232Z,60.10
2019-02-27T03:45:16.436Z,62.27
2019-02-27T03:48:12.586Z,59.00
2019-02-27T03:50:55.463Z,60.83
2019-02-27T03:53:47.256Z,66.67
2019-02-27T03:56:30.334Z,65.60
2019-02-27T03:59:16.152Z,60.70
2019-02-27T04:02:20.604Z,60.37
2019-02-27T04:05:07.159Z,60.57
2019-02-27T04:07:57.585Z,61.43
2019-02-27T04:10:30.869Z,60.53
2019-02-27T04:12:58.396Z,63.13
2019-02-27T04:15:27.907Z,58.27
2019-02-27T04:17:55.978Z,56.13
2019-02-27T04:20:25.515Z,58.70
2019-02-27T04:22:55.031Z,57.80
2019-02-27T04:25:24.597Z,54.20
2019-02-27T04:27:55.596Z,51.60
2019-02-27T04:30:26.001Z,53.27
2019-02-27T04:32:55.518Z,56.27
2019-02-27T04:35:25.027Z,55.33
2019-02-27T04:37:54.914Z,56.70
2019-02-27T04:40:24.461Z,55.30
2019-02-27T04:42:54.031Z,54.60
2019-02-27T04:45:23.579Z,55.27
2019-02-27T04:47:53.097Z,55.57
2019-02-27T04:50:22.639Z,56.10
2019-02-27T04:52:52.151Z,56.10
2019-02-27T04:55:21.871Z,53.17
2019-02-27T04:57:51.386Z,54.30
2019-02-27T05:00:20.935Z,52.90
2019-02-27T05:02:53.401Z,51.33
2019-02-27T05:05:21.734Z,53.57
2019-02-27T05:07:54.135Z,53.00
2019-02-27T05:10:22.590Z,53.00
2019-02-27T05:12:52.118Z,51.40
2019-02-27T05:15:21.665Z,51.80
2019-02-27T05:17:53.034Z,49.23
2019-02-27T05:20:22.444Z,51.40
2019-02-27T05:22:51.964Z,48.83
2019-02-27T05:25:21.504Z,48.97
2019-02-27T05:27:51.031Z,49.07
2019-02-27T05:30:20.562Z,46.87
2019-02-27T05:32:50.111Z,47.70
2019-02-27T05:35:23.318Z,48.00
2019-02-27T05:37:50.978Z,47.50
2019-02-27T05:40:25.668Z,46.57
2019-02-27T05:42:51.754Z,47.20
2019-02-27T05:45:21.846Z,46.70
2019-02-27T05:47:51.392Z,46.90
2019-02-27T05:50:20.923Z,45.77
2019-02-27T05:52:50.443Z,46.27
2019-02-27T05:55:19.984Z,46.20
2019-02-27T05:57:49.494Z,43.20
2019-02-27T06:00:21.201Z,45.07
2019-02-27T06:02:50.795Z,43.03
2019-02-27T06:05:20.315Z,42.70
2019-02-27T06:07:49.850Z,41.53
2019-02-27T06:10:20.078Z,43.57
2019-02-27T06:12:50.331Z,41.60
2019-02-27T06:15:20.108Z,40.50
2019-02-27T06:17:49.864Z,43.00
2019-02-27T06:20:19.434Z,39.67
2019-02-27T06:22:48.942Z,39.90
2019-02-27T06:25:23.206Z,38.77
2019-02-27T06:27:50.791Z,37.80
2019-02-27T06:30:21.668Z,39.37
2019-02-27T06:32:51.183Z,37.90
2019-02-27T06:35:20.717Z,37.90
2019-02-27T06:37:50.732Z,36.47
2019-02-27T06:40:21.010Z,36.77
2019-02-27T06:42:53.417Z,35.90
2019-02-27T06:45:21.804Z,34.50
2019-02-27T06:47:51.433Z,36.27
2019-02-27T06:50:25.195Z,37.50
2019-02-27T06:52:52.203Z,35.00
2019-02-27T06:55:21.988Z,36.00
2019-02-27T06:57:51.494Z,35.57
2019-02-27T07:00:25.891Z,32.50
2019-02-27T07:02:56.227Z,33.07
2019-02-27T07:05:25.904Z,34.07
2019-02-27T07:07:55.457Z,34.20
2019-02-27T07:10:24.997Z,35.27
2019-02-27T07:12:55.322Z,33.30
2019-02-27T07:15:25.055Z,35.10
2019-02-27T07:17:54.581Z,32.90
2019-02-27T07:20:25.126Z,33.53
2019-02-27T07:22:54.827Z,32.10
2019-02-27T07:25:24.363Z,34.07
2019-02-27T07:27:53.893Z,32.23
2019-02-27T07:30:24.023Z,33.40
2019-02-27T07:32:53.627Z,35.43
2019-02-27T07:35:25.520Z,34.13
2019-02-27T07:37:54.487Z,34.10
2019-02-27T07:40:24.011Z,33.40
2019-02-27T07:42:53.643Z,33.50
2019-02-27T07:45:23.928Z,31.97
2019-02-27T07:47:53.438Z,34.43
2019-02-27T07:50:23.291Z,34.77
2019-02-27T07:52:52.798Z,32.73
2019-02-27T07:55:23.611Z,34.43
2019-02-27T07:57:58.342Z,33.77
2019-02-27T08:00:26.392Z,32.70
2019-02-27T08:02:56.230Z,34.57
2019-02-27T08:05:27.982Z,33.80
2019-02-27T08:07:57.013Z,32.60
2019-02-27T08:10:27.283Z,33.87
2019-02-27T08:12:56.898Z,32.80
2019-02-27T08:15:26.453Z,32.57
2019-02-27T08:17:57.977Z,31.80
2019-02-27T08:20:27.329Z,31.10
2019-02-27T08:22:57.957Z,33.40
2019-02-27T08:25:27.780Z,31.93
2019-02-27T08:27:57.361Z,31.97
2019-02-27T08:30:46.290Z,33.07
2019-02-27T08:33:15.918Z,33.87
2019-02-27T08:35:45.525Z,31.77
2019-02-27T08:38:15.285Z,34.40
2019-02-27T08:40:45.187Z,32.53
2019-02-27T08:43:15.027Z,31.57
2019-02-27T08:45:44.821Z,32.10
2019-02-27T08:48:17.254Z,33.07
2019-02-27T08:50:45.776Z,31.50
2019-02-27T08:53:15.361Z,30.77
2019-02-27T08:55:44.989Z,32.63
2019-02-27T08:58:14.593Z,31.40
2019-02-27T09:00:47.071Z,31.63
2019-02-27T09:03:20.220Z,31.63
2019-02-27T09:05:47.311Z,32.03
2019-02-27T09:08:16.911Z,32.77
2019-02-27T09:10:46.471Z,31.20
2019-02-27T09:13:16.115Z,31.20
2019-02-27T09:15:45.695Z,33.43
2019-02-27T09:18:15.267Z,33.40
2019-02-27T09:20:44.863Z,32.83
2019-02-27T09:23:14.437Z,39.33
2019-02-27T09:25:44.282Z,33.93
2019-02-27T09:28:13.852Z,34.30
2019-02-27T09:30:43.417Z,33.27
2019-02-27T09:33:13.008Z,32.50
2019-02-27T09:35:42.645Z,34.40
2019-02-27T09:38:12.230Z,33.83
2019-02-27T09:40:41.953Z,31.10
2019-02-27T09:43:11.731Z,31.90
2019-02-27T09:45:46.245Z,30.13
2019-02-27T09:48:12.875Z,29.30
2019-02-27T09:50:48.333Z,29.33
2019-02-27T09:53:18.786Z,30.10
2019-02-27T09:55:53.251Z,29.60
2019-02-27T09:58:19.917Z,31.60
2019-02-27T10:00:59.146Z,28.67
2019-02-27T10:03:27.927Z,28.40
2019-02-27T10:05:57.528Z,26.17
2019-02-27T10:08:27.153Z,27.63
2019-02-27T10:10:56.718Z,25.80
2019-02-27T10:13:26.385Z,26.80
2019-02-27T10:16:00.612Z,26.20
2019-02-27T10:18:27.602Z,26.17
2019-02-27T10:20:57.311Z,25.30
2019-02-27T10:23:30.180Z,26.47
2019-02-27T10:25:58.218Z,25.90
2019-02-27T10:28:27.781Z,26.03
2019-02-27T10:30:57.467Z,28.07
2019-02-27T10:33:27.031Z,27.20
2019-02-27T10:35:56.955Z,26.27
2019-02-27T10:38:26.884Z,26.33
2019-02-27T10:40:56.622Z,27.27
2019-02-27T10:43:26.213Z,26.47
2019-02-27T10:45:55.850Z,26.87
2019-02-27T10:48:25.423Z,27.00
2019-02-27T10:50:55.114Z,25.93
2019-02-27T10:53:27.173Z,25.40
2019-02-27T10:55:56.188Z,24.97
2019-02-27T10:58:25.807Z,22.57
2019-02-27T11:00:58.085Z,22.50
2019-02-27T11:03:27.540Z,23.10
2019-02-27T11:05:57.110Z,24.03
2019-02-27T11:08:29.551Z,22.80
2019-02-27T11:10:58.522Z,23.57
2019-02-27T11:13:28.231Z,23.20
2019-02-27T11:15:57.881Z,22.80
2019-02-27T11:18:27.450Z,20.77
2019-02-27T11:20:59.180Z,21.93
2019-02-27T11:23:28.327Z,21.00
2019-02-27T11:25:57.894Z,20.93
2019-02-27T11:28:27.495Z,20.17
2019-02-27T11:30:57.119Z,21.10
2019-02-27T11:33:30.115Z,22.10
2019-02-27T11:35:58.064Z,21.00
2019-02-27T11:38:27.814Z,21.80
2019-02-27T11:40:57.382Z,22.93
2019-02-27T11:43:27.028Z,20.73
2019-02-27T11:45:58.022Z,19.90
2019-02-27T11:48:27.922Z,22.97
2019-02-27T11:50:57.697Z,21.67
2019-02-27T11:53:27.260Z,21.13
2019-02-27T11:55:56.903Z,20.80
2019-02-27T11:58:26.504Z,20.33
2019-02-27T12:00:56.130Z,21.43
2019-02-27T12:03:25.800Z,20.50
2019-02-27T12:05:55.479Z,20.00
2019-02-27T12:08:26.653Z,19.47
2019-02-27T12:10:56.624Z,18.17
2019-02-27T12:13:26.180Z,19.23
2019-02-27T12:15:55.786Z,19.20
2019-02-27T12:18:25.348Z,21.47
2019-02-27T12:20:55.054Z,21.53
2019-02-27T12:23:24.642Z,23.20
2019-02-27T12:25:54.211Z,21.23
2019-02-27T12:28:24.564Z,22.47
2019-02-27T12:30:54.121Z,21.10
2019-02-27T12:33:23.689Z,20.10
2019-02-27T12:35:53.283Z,21.70
2019-02-27T12:38:23.137Z,20.47
2019-02-27T12:40:52.720Z,20.20
2019-02-27T12:43:22.289Z,19.20
2019-02-27T12:45:51.915Z,18.17
2019-02-27T12:48:21.588Z,19.13
2019-02-27T12:50:51.411Z,18.23
2019-02-27T12:53:21.774Z,17.90
2019-02-27T12:55:51.603Z,18.13
2019-02-27T12:58:21.225Z,18.60
2019-02-27T13:00:50.880Z,17.00
2019-02-27T13:03:20.507Z,19.00
2019-02-27T13:05:50.119Z,18.90
2019-02-27T13:08:19.680Z,18.03
2019-02-27T13:10:49.325Z,16.60
2019-02-27T13:13:18.921Z,15.70
2019-02-27T13:15:48.489Z,16.90
2019-02-27T13:18:18.362Z,15.80
2019-02-27T13:20:47.986Z,15.07
2019-02-27T13:23:17.553Z,16.30
2019-02-27T13:25:47.148Z,16.07
2019-02-27T13:28:16.704Z,16.10
2019-02-27T13:30:46.454Z,14.60
2019-02-27T13:33:16.034Z,14.90
2019-02-27T13:35:45.731Z,14.90
2019-02-27T13:38:18.525Z,15.80
2019-02-27T13:40:46.747Z,14.80
2019-02-27T13:43:16.397Z,15.40
2019-02-27T13:45:47.567Z,13.67
2019-02-27T13:48:17.351Z,14.40
2019-02-27T13:50:47.001Z,15.37
2019-02-27T13:53:16.567Z,14.30
2019-02-27T13:55:48.138Z,14.20
2019-02-27T13:58:17.475Z,13.90
2019-02-27T14:00:47.170Z,12.97
2019-02-27T14:03:16.765Z,11.47
2019-02-27T14:05:46.323Z,12.27
2019-02-27T14:08:16.359Z,11.03
2019-02-27T14:10:46.004Z,10.83
2019-02-27T14:13:15.573Z,11.23
2019-02-27T14:15:45.165Z,9.87
2019-02-27T14:18:16.114Z,10.30
2019-02-27T14:20:46.119Z,8.83
2019-02-27T14:23:15.681Z,10.50
2019-02-27T14:25:45.322Z,10.53
2019-02-27T14:28:14.919Z,10.20
2019-02-27T14:30:57.319Z,9.90
2019-02-27T14:33:26.909Z,10.40
2019-02-27T14:35:56.471Z,9.60
2019-02-27T14:38:26.050Z,8.50
2019-02-27T14:40:55.721Z,9.57
2019-02-27T14:43:27.358Z,9.63
2019-02-27T14:45:56.678Z,9.70
2019-02-27T14:48:27.776Z,9.10
2019-02-27T14:50:57.359Z,9.77
2019-02-27T14:53:26.953Z,10.30
2019-02-27T14:55:56.667Z,9.90
2019-02-27T14:58:26.254Z,11.50
2019-02-27T15:00:55.837Z,10.70
2019-02-27T15:03:29.280Z,11.73
2019-02-27T15:05:56.924Z,10.83
2019-02-27T15:08:26.479Z,11.13
2019-02-27T15:10:56.510Z,11.23
2019-02-27T15:13:28.429Z,12.37
2019-02-27T15:15:57.379Z,11.70
2019-02-27T15:18:27.249Z,11.40
2019-02-27T15:20:56.879Z,12.20
2019-02-27T15:23:28.310Z,12.07
2019-02-27T15:25:57.781Z,13.20
2019-02-27T15:28:32.997Z,11.83
2019-02-27T15:30:58.672Z,11.53
2019-02-27T15:33:28.251Z,11.47
2019-02-27T15:35:57.855Z,11.50
2019-02-27T15:38:27.418Z,13.27
2019-02-27T15:40:56.984Z,11.80
2019-02-27T15:43:26.573Z,12.30
2019-02-27T15:45:56.136Z,11.13
2019-02-27T15:48:25.890Z,11.93
2019-02-27T15:50:57.234Z,12.57
2019-02-27T15:53:26.825Z,11.70
2019-02-27T15:55:56.516Z,13.07
2019-02-27T15:58:28.117Z,12.37
2019-02-27T16:00:57.576Z,12.80
2019-02-27T16:03:27.145Z,13.00
2019-02-27T16:05:56.708Z,12.83
2019-02-27T16:08:26.318Z,13.60
2019-02-27T16:10:55.891Z,13.70
2019-02-27T16:13:25.497Z,12.33
2019-02-27T16:15:55.128Z,11.70
2019-02-27T16:18:24.686Z,12.90
2019-02-27T16:20:54.285Z,14.67
2019-02-27T16:23:23.906Z,12.60
2019-02-27T16:25:55.885Z,13.20
2019-02-27T16:28:24.884Z,13.37
2019-02-27T16:30:54.452Z,11.93
2019-02-27T16:33:24.611Z,12.50
2019-02-27T16:35:54.365Z,13.57
2019-02-27T16:38:24.046Z,11.93
2019-02-27T16:40:53.717Z,12.93
2019-02-27T16:43:23.265Z,12.47
2019-02-27T16:45:52.860Z,12.67
2019-02-27T16:48:22.442Z,11.30
2019-02-27T16:50:52.236Z,12.43
2019-02-27T16:53:21.827Z,13.57
2019-02-27T16:55:51.388Z,13.80
2019-02-27T16:58:21.376Z,11.80
2019-02-27T17:00:54.403Z,11.30
2019-02-27T17:03:22.613Z,11.70
2019-02-27T17:05:52.167Z,13.87
2019-02-27T17:08:21.785Z,11.80
2019-02-27T17:10:51.937Z,13.33
2019-02-27T17:13:22.263Z,11.97
2019-02-27T17:15:51.837Z,11.33
2019-02-27T17:18:21.403Z,12.07
2019-02-27T17:20:51.041Z,13.40
2019-02-27T17:23:20.639Z,11.50
2019-02-27T17:25:50.268Z,11.80
2019-02-27T17:28:20.290Z,13.23
2019-02-27T17:30:49.935Z,14.07
2019-02-27T17:33:19.586Z,14.83
2019-02-27T17:35:49.202Z,14.10
2019-02-27T17:38:18.779Z,14.10
2019-02-27T17:40:48.542Z,14.30
2019-02-27T17:43:18.166Z,14.00
2019-02-27T17:45:47.725Z,13.67
2019-02-27T17:48:17.314Z,14.67
2019-02-27T17:50:46.892Z,12.80
2019-02-27T17:53:16.889Z,12.67
2019-02-27T17:55:46.456Z,12.83
2019-02-27T17:58:16.017Z,14.03
2019-02-27T18:00:49.978Z,13.33
2019-02-27T18:03:18.584Z,14.60
2019-02-27T18:05:48.170Z,12.73
2019-02-27T18:08:17.740Z,14.40
2019-02-27T18:10:47.445Z,15.70
2019-02-27T18:13:17.039Z,14.40
2019-02-27T18:15:46.733Z,13.20
2019-02-27T18:18:16.399Z,11.73
2019-02-27T18:20:47.512Z,13.17
2019-02-27T18:23:17.066Z,12.57
2019-02-27T18:25:46.727Z,11.10
2019-02-27T18:28:16.291Z,11.80
2019-02-27T18:30:46.136Z,13.30
2019-02-27T18:33:17.468Z,12.20
2019-02-27T18:35:47.193Z,12.60
2019-02-27T18:38:16.823Z,10.83
2019-02-27T18:40:46.389Z,12.03
2019-02-27T18:43:16.030Z,12.57
2019-02-27T18:45:48.131Z,12.93
2019-02-27T18:48:16.912Z,23.37
2019-02-27T18:50:46.862Z,13.97
2019-02-27T18:53:16.451Z,14.60
2019-02-27T18:55:46.206Z,13.77
2019-02-27T18:58:18.246Z,14.00
2019-02-27T19:00:47.144Z,14.53
2019-02-27T19:03:16.817Z,13.17
2019-02-27T19:05:46.460Z,13.20
2019-02-27T19:08:16.333Z,13.63
2019-02-27T19:10:46.346Z,13.70
2019-02-27T19:13:16.096Z,14.20
2019-02-27T19:15:46.447Z,14.13
2019-02-27T19:18:16.071Z,13.00
2019-02-27T19:20:47.623Z,15.27
2019-02-27T19:23:18.516Z,15.20
2019-02-27T19:25:48.538Z,15.10
2019-02-27T19:28:18.194Z,14.90
2019-02-27T19:30:47.762Z,14.97
2019-02-27T19:33:17.592Z,13.90
2019-02-27T19:35:47.213Z,14.13
2019-02-27T19:38:16.792Z,14.50
2019-02-27T19:40:46.514Z,12.87
2019-02-27T19:43:18.122Z,14.50
2019-02-27T19:45:47.733Z,14.10
2019-02-27T19:48:17.294Z,12.90
2019-02-27T19:50:47.394Z,12.90
2019-02-27T19:53:17.019Z,14.50
2019-02-27T19:55:46.724Z,12.40
2019-02-27T19:58:18.191Z,13.07
2019-02-27T20:00:48.757Z,13.33
2019-02-27T20:03:18.534Z,11.93
2019-02-27T20:05:50.612Z,12.80
2019-02-27T20:08:19.618Z,12.80
2019-02-27T20:10:52.065Z,12.60
2019-02-27T20:13:24.718Z,13.67
2019-02-27T20:15:53.183Z,12.87
2019-02-27T20:18:23.536Z,12.67
2019-02-27T20:20:53.418Z,12.53
2019-02-27T20:23:25.766Z,12.63
2019-02-27T20:25:56.088Z,12.90
2019-02-27T20:28:25.974Z,13.30
2019-02-27T20:30:55.543Z,13.40
2019-02-27T20:33:25.167Z,13.00
2019-02-27T20:35:55.632Z,12.87
2019-02-27T20:38:26.331Z,13.17
2019-02-27T20:40:55.991Z,11.40
2019-02-27T20:43:29.139Z,12.73
2019-02-27T20:45:56.905Z,13.17
2019-02-27T20:48:26.521Z,12.20
2019-02-27T20:51:05.895Z,11.57
2019-02-27T20:53:34.526Z,12.10
2019-02-27T20:56:04.088Z,13.10
2019-02-27T20:58:33.681Z,11.13
2019-02-27T21:01:03.243Z,12.13
2019-02-27T21:03:32.910Z,12.73
2019-02-27T21:06:02.541Z,11.80
2019-02-27T21:08:33.281Z,13.03
2019-02-27T21:11:04.441Z,13.80
2019-02-27T21:13:34.000Z,13.17
2019-02-27T21:16:09.264Z,13.80
2019-02-27T21:18:35.412Z,13.70
2019-02-27T21:21:05.074Z,15.90
2019-02-27T21:23:34.736Z,13.37
2019-02-27T21:26:04.424Z,14.30
2019-02-27T21:28:34.019Z,13.20
2019-02-27T21:31:03.723Z,15.57
2019-02-27T21:33:33.302Z,12.33
2019-02-27T21:36:03.665Z,11.50
2019-02-27T21:38:33.467Z,12.10
2019-02-27T21:41:03.101Z,15.30
2019-02-27T21:43:32.679Z,14.27
2019-02-27T21:46:02.234Z,12.20
2019-02-27T21:48:31.825Z,12.37
2019-02-27T21:51:01.389Z,12.87
2019-02-27T21:53:30.937Z,16.20
2019-02-27T21:56:00.525Z,12.47
2019-02-27T21:58:32.834Z,13.30
2019-02-27T22:01:01.397Z,10.87
2019-02-27T22:03:31.422Z,10.50
2019-02-27T22:06:00.981Z,9.87
2019-02-27T22:08:30.665Z,10.67
2019-02-27T22:11:00.450Z,10.93
2019-02-27T22:13:32.262Z,9.93
2019-02-27T22:16:01.393Z,10.20
2019-02-27T22:18:31.127Z,10.90
2019-02-27T22:21:00.751Z,10.20
2019-02-27T22:23:30.302Z,9.90
2019-02-27T22:26:03.143Z,10.67
2019-02-27T22:28:31.366Z,10.40
2019-02-27T22:31:06.290Z,8.93
2019-02-27T22:33:32.326Z,9.23
2019-02-27T22:36:01.948Z,8.63
2019-02-27T22:38:31.506Z,7.93
2019-02-27T22:41:01.089Z,9.40
2019-02-27T22:43:30.642Z,8.93
2019-02-27T22:46:00.197Z,10.77
2019-02-27T22:48:29.781Z,8.50
2019-02-27T22:50:59.356Z,7.87
2019-02-27T22:53:29.419Z,7.93
2019-02-27T22:55:59.322Z,7.33
2019-02-27T22:58:28.897Z,8.80
2019-02-27T23:01:10.373Z,6.97
2019-02-27T23:03:44.829Z,7.10
2019-02-27T23:06:14.443Z,8.80
2019-02-27T23:08:44.191Z,8.67
2019-02-27T23:11:14.081Z,8.07
2019-02-27T23:13:47.635Z,9.50
2019-02-27T23:16:18.532Z,8.97
2019-02-27T23:18:48.225Z,7.90
2019-02-27T23:21:18.037Z,7.90
2019-02-27T23:23:47.630Z,7.90
2019-02-27T23:26:19.814Z,7.30
2019-02-27T23:28:48.673Z,8.07
2019-02-27T23:31:22.404Z,7.80
2019-02-27T23:33:49.543Z,8.47
2019-02-27T23:36:22.010Z,7.77
2019-02-27T23:38:50.488Z,6.97
2019-02-27T23:41:22.899Z,8.07
2019-02-27T23:43:51.324Z,7.63
2019-02-27T23:46:21.004Z,8.07
2019-02-27T23:48:50.543Z,7.53
2019-02-27T23:51:20.113Z,7.93
2019-02-27T23:53:49.684Z,8.03
2019-02-27T23:56:20.240Z,7.57
2019-02-27T23:58:50.322Z,7.23
